sensor_id;sensor_type;location;lat;lon;timestamp;P1;durP1;ratioP1;P2;durP2;ratioP2
39502;SDS011;26970;49.900;10.774;2023-07-29T00:01:59;5.20;;;3.50;;
39502;SDS011;26970;49.900;10.774;2023-07-29T00:04:25;5.40;;;3.67;;
39502;SDS011;26970;49.900;10.774;2023-07-29T00:06:50;4.80;;;3.70;;
39502;SDS011;26970;49.900;10.774;2023-07-29T00:09:16;4.53;;;3.80;;
39502;SDS011;26970;49.900;10.774;2023-07-29T00:11:42;6.18;;;3.70;;
39502;SDS011;26970;49.900;10.774;2023-07-29T00:14:07;6.15;;;3.88;;
39502;SDS011;26970;49.900;10.774;2023-07-29T00:16:33;12.23;;;3.92;;
39502;SDS011;26970;49.900;10.774;2023-07-29T00:18:58;5.65;;;4.10;;
39502;SDS011;26970;49.900;10.774;2023-07-29T00:21:24;6.97;;;4.47;;
39502;SDS011;26970;49.900;10.774;2023-07-29T00:23:50;6.05;;;4.60;;
39502;SDS011;26970;49.900;10.774;2023-07-29T00:26:15;7.22;;;4.60;;
39502;SDS011;26970;49.900;10.774;2023-07-29T00:28:41;6.18;;;4.82;;
39502;SDS011;26970;49.900;10.774;2023-07-29T00:31:06;5.47;;;4.65;;
39502;SDS011;26970;49.900;10.774;2023-07-29T00:33:32;6.18;;;4.85;;
39502;SDS011;26970;49.900;10.774;2023-07-29T00:35:57;7.50;;;4.72;;
39502;SDS011;26970;49.900;10.774;2023-07-29T00:38:26;5.90;;;5.05;;
39502;SDS011;26970;49.900;10.774;2023-07-29T00:40:52;6.22;;;4.68;;
39502;SDS011;26970;49.900;10.774;2023-07-29T00:43:17;7.15;;;5.38;;
39502;SDS011;26970;49.900;10.774;2023-07-29T00:45:43;8.40;;;5.63;;
39502;SDS011;26970;49.900;10.774;2023-07-29T00:48:10;6.88;;;5.60;;
39502;SDS011;26970;49.900;10.774;2023-07-29T00:50:35;8.05;;;6.22;;
39502;SDS011;26970;49.900;10.774;2023-07-29T00:53:01;9.60;;;6.45;;
39502;SDS011;26970;49.900;10.774;2023-07-29T00:55:27;7.95;;;6.20;;
39502;SDS011;26970;49.900;10.774;2023-07-29T00:57:53;8.68;;;6.20;;
39502;SDS011;26970;49.900;10.774;2023-07-29T01:00:19;8.30;;;6.15;;
39502;SDS011;26970;49.900;10.774;2023-07-29T01:02:46;8.70;;;6.47;;
39502;SDS011;26970;49.900;10.774;2023-07-29T01:05:13;9.05;;;6.10;;
39502;SDS011;26970;49.900;10.774;2023-07-29T01:07:55;8.43;;;6.30;;
39502;SDS011;26970;49.900;10.774;2023-07-29T01:13:41;7.63;;;6.35;;
39502;SDS011;26970;49.900;10.774;2023-07-29T01:16:31;7.57;;;6.68;;
39502;SDS011;26970;49.900;10.774;2023-07-29T01:19:08;9.02;;;6.88;;
39502;SDS011;26970;49.900;10.774;2023-07-29T01:21:52;8.63;;;6.65;;
39502;SDS011;26970;49.900;10.774;2023-07-29T01:24:20;10.63;;;6.65;;
39502;SDS011;26970;49.900;10.774;2023-07-29T01:26:45;11.00;;;7.07;;
39502;SDS011;26970;49.900;10.774;2023-07-29T01:29:11;10.40;;;7.10;;
39502;SDS011;26970;49.900;10.774;2023-07-29T01:31:38;10.20;;;6.68;;
39502;SDS011;26970;49.900;10.774;2023-07-29T01:34:26;7.43;;;6.65;;
39502;SDS011;26970;49.900;10.774;2023-07-29T01:36:54;9.07;;;7.30;;
39502;SDS011;26970;49.900;10.774;2023-07-29T01:39:24;11.52;;;6.50;;
39502;SDS011;26970;49.900;10.774;2023-07-29T01:41:54;12.38;;;6.95;;
39502;SDS011;26970;49.900;10.774;2023-07-29T01:44:24;11.65;;;7.32;;
39502;SDS011;26970;49.900;10.774;2023-07-29T01:46:51;12.02;;;7.50;;
39502;SDS011;26970;49.900;10.774;2023-07-29T01:49:16;9.70;;;7.82;;
39502;SDS011;26970;49.900;10.774;2023-07-29T01:51:42;9.15;;;7.97;;
39502;SDS011;26970;49.900;10.774;2023-07-29T01:54:08;12.85;;;7.93;;
39502;SDS011;26970;49.900;10.774;2023-07-29T01:56:34;10.52;;;7.55;;
39502;SDS011;26970;49.900;10.774;2023-07-29T01:58:59;11.77;;;8.05;;
39502;SDS011;26970;49.900;10.774;2023-07-29T02:01:25;8.77;;;7.22;;
39502;SDS011;26970;49.900;10.774;2023-07-29T02:03:50;10.52;;;8.02;;
39502;SDS011;26970;49.900;10.774;2023-07-29T02:06:20;10.70;;;8.70;;
39502;SDS011;26970;49.900;10.774;2023-07-29T02:08:46;9.57;;;8.63;;
39502;SDS011;26970;49.900;10.774;2023-07-29T02:11:11;9.25;;;8.35;;
39502;SDS011;26970;49.900;10.774;2023-07-29T02:13:37;10.80;;;8.13;;
39502;SDS011;26970;49.900;10.774;2023-07-29T02:16:02;11.23;;;9.15;;
39502;SDS011;26970;49.900;10.774;2023-07-29T02:18:28;8.82;;;7.85;;
39502;SDS011;26970;49.900;10.774;2023-07-29T02:20:54;9.95;;;8.07;;
39502;SDS011;26970;49.900;10.774;2023-07-29T02:23:19;9.15;;;8.23;;
39502;SDS011;26970;49.900;10.774;2023-07-29T02:25:45;10.77;;;8.75;;
39502;SDS011;26970;49.900;10.774;2023-07-29T02:28:10;10.27;;;8.93;;
39502;SDS011;26970;49.900;10.774;2023-07-29T02:30:36;9.68;;;8.68;;
39502;SDS011;26970;49.900;10.774;2023-07-29T02:33:02;10.02;;;8.40;;
39502;SDS011;26970;49.900;10.774;2023-07-29T02:35:27;9.23;;;8.27;;
39502;SDS011;26970;49.900;10.774;2023-07-29T02:37:53;9.38;;;8.13;;
39502;SDS011;26970;49.900;10.774;2023-07-29T02:40:19;13.02;;;8.27;;
39502;SDS011;26970;49.900;10.774;2023-07-29T02:42:45;15.48;;;8.88;;
39502;SDS011;26970;49.900;10.774;2023-07-29T02:45:11;13.82;;;8.75;;
39502;SDS011;26970;49.900;10.774;2023-07-29T02:47:37;10.23;;;7.88;;
39502;SDS011;26970;49.900;10.774;2023-07-29T02:50:03;9.68;;;8.20;;
39502;SDS011;26970;49.900;10.774;2023-07-29T02:52:29;12.27;;;7.72;;
39502;SDS011;26970;49.900;10.774;2023-07-29T02:54:55;11.20;;;8.13;;
39502;SDS011;26970;49.900;10.774;2023-07-29T02:57:20;11.45;;;7.95;;
39502;SDS011;26970;49.900;10.774;2023-07-29T02:59:46;10.80;;;8.45;;
39502;SDS011;26970;49.900;10.774;2023-07-29T03:02:11;11.10;;;8.63;;
39502;SDS011;26970;49.900;10.774;2023-07-29T03:04:37;12.15;;;8.18;;
39502;SDS011;26970;49.900;10.774;2023-07-29T03:07:02;13.05;;;9.13;;
39502;SDS011;26970;49.900;10.774;2023-07-29T03:09:28;13.00;;;8.40;;
39502;SDS011;26970;49.900;10.774;2023-07-29T03:11:54;10.55;;;9.02;;
39502;SDS011;26970;49.900;10.774;2023-07-29T03:14:20;10.35;;;8.88;;
39502;SDS011;26970;49.900;10.774;2023-07-29T03:16:46;13.70;;;9.57;;
39502;SDS011;26970;49.900;10.774;2023-07-29T03:19:12;10.68;;;9.57;;
39502;SDS011;26970;49.900;10.774;2023-07-29T03:21:37;13.88;;;10.25;;
39502;SDS011;26970;49.900;10.774;2023-07-29T03:24:03;18.00;;;10.18;;
39502;SDS011;26970;49.900;10.774;2023-07-29T03:26:29;13.60;;;10.55;;
39502;SDS011;26970;49.900;10.774;2023-07-29T03:28:54;15.35;;;11.02;;
39502;SDS011;26970;49.900;10.774;2023-07-29T03:31:20;13.48;;;11.52;;
39502;SDS011;26970;49.900;10.774;2023-07-29T03:33:45;19.27;;;11.60;;
39502;SDS011;26970;49.900;10.774;2023-07-29T03:36:11;15.20;;;10.43;;
39502;SDS011;26970;49.900;10.774;2023-07-29T03:38:36;14.30;;;10.20;;
39502;SDS011;26970;49.900;10.774;2023-07-29T03:41:05;12.82;;;10.05;;
39502;SDS011;26970;49.900;10.774;2023-07-29T03:43:32;11.50;;;10.23;;
39502;SDS011;26970;49.900;10.774;2023-07-29T03:45:58;15.60;;;10.50;;
39502;SDS011;26970;49.900;10.774;2023-07-29T03:48:23;15.18;;;10.27;;
39502;SDS011;26970;49.900;10.774;2023-07-29T03:50:49;11.65;;;9.25;;
39502;SDS011;26970;49.900;10.774;2023-07-29T03:53:14;14.25;;;9.43;;
39502;SDS011;26970;49.900;10.774;2023-07-29T03:55:40;13.23;;;9.27;;
39502;SDS011;26970;49.900;10.774;2023-07-29T03:58:05;11.60;;;10.27;;
39502;SDS011;26970;49.900;10.774;2023-07-29T04:00:31;11.20;;;9.77;;
39502;SDS011;26970;49.900;10.774;2023-07-29T04:02:57;11.30;;;9.90;;
39502;SDS011;26970;49.900;10.774;2023-07-29T04:05:22;13.55;;;9.57;;
39502;SDS011;26970;49.900;10.774;2023-07-29T04:07:48;12.68;;;9.75;;
39502;SDS011;26970;49.900;10.774;2023-07-29T04:10:13;12.98;;;9.45;;
39502;SDS011;26970;49.900;10.774;2023-07-29T04:12:39;11.98;;;9.32;;
39502;SDS011;26970;49.900;10.774;2023-07-29T04:15:05;10.88;;;8.70;;
39502;SDS011;26970;49.900;10.774;2023-07-29T04:17:31;13.43;;;8.50;;
39502;SDS011;26970;49.900;10.774;2023-07-29T04:19:56;10.85;;;8.43;;
39502;SDS011;26970;49.900;10.774;2023-07-29T04:22:22;9.43;;;6.80;;
39502;SDS011;26970;49.900;10.774;2023-07-29T04:24:47;8.75;;;7.00;;
39502;SDS011;26970;49.900;10.774;2023-07-29T04:27:13;10.20;;;6.95;;
39502;SDS011;26970;49.900;10.774;2023-07-29T04:29:39;8.65;;;6.80;;
39502;SDS011;26970;49.900;10.774;2023-07-29T04:32:04;8.95;;;6.55;;
39502;SDS011;26970;49.900;10.774;2023-07-29T04:34:30;12.43;;;6.95;;
39502;SDS011;26970;49.900;10.774;2023-07-29T04:36:56;12.82;;;7.35;;
39502;SDS011;26970;49.900;10.774;2023-07-29T04:39:22;9.27;;;6.82;;
39502;SDS011;26970;49.900;10.774;2023-07-29T04:41:48;10.13;;;6.57;;
39502;SDS011;26970;49.900;10.774;2023-07-29T04:44:14;9.25;;;6.07;;
39502;SDS011;26970;49.900;10.774;2023-07-29T04:46:39;12.10;;;6.65;;
39502;SDS011;26970;49.900;10.774;2023-07-29T04:49:05;10.32;;;6.55;;
39502;SDS011;26970;49.900;10.774;2023-07-29T04:51:30;7.70;;;5.70;;
39502;SDS011;26970;49.900;10.774;2023-07-29T04:53:59;8.38;;;6.07;;
39502;SDS011;26970;49.900;10.774;2023-07-29T04:56:25;7.95;;;5.47;;
39502;SDS011;26970;49.900;10.774;2023-07-29T04:58:51;6.50;;;4.88;;
39502;SDS011;26970;49.900;10.774;2023-07-29T05:01:17;7.28;;;5.72;;
39502;SDS011;26970;49.900;10.774;2023-07-29T05:03:43;6.85;;;5.45;;
39502;SDS011;26970;49.900;10.774;2023-07-29T05:06:09;8.32;;;6.07;;
39502;SDS011;26970;49.900;10.774;2023-07-29T05:08:34;6.55;;;5.47;;
39502;SDS011;26970;49.900;10.774;2023-07-29T05:11:00;6.72;;;5.07;;
39502;SDS011;26970;49.900;10.774;2023-07-29T05:13:26;7.18;;;5.40;;
39502;SDS011;26970;49.900;10.774;2023-07-29T05:15:51;5.82;;;4.68;;
39502;SDS011;26970;49.900;10.774;2023-07-29T05:18:17;5.55;;;4.55;;
39502;SDS011;26970;49.900;10.774;2023-07-29T05:20:43;6.78;;;4.95;;
39502;SDS011;26970;49.900;10.774;2023-07-29T05:23:08;6.28;;;5.32;;
39502;SDS011;26970;49.900;10.774;2023-07-29T05:25:34;8.38;;;5.85;;
39502;SDS011;26970;49.900;10.774;2023-07-29T05:28:00;8.88;;;6.43;;
39502;SDS011;26970;49.900;10.774;2023-07-29T05:30:26;9.15;;;5.90;;
39502;SDS011;26970;49.900;10.774;2023-07-29T05:32:55;7.70;;;6.55;;
39502;SDS011;26970;49.900;10.774;2023-07-29T05:35:24;7.82;;;6.40;;
39502;SDS011;26970;49.900;10.774;2023-07-29T05:37:50;7.53;;;6.18;;
39502;SDS011;26970;49.900;10.774;2023-07-29T05:40:16;8.65;;;6.82;;
39502;SDS011;26970;49.900;10.774;2023-07-29T05:42:42;8.48;;;7.10;;
39502;SDS011;26970;49.900;10.774;2023-07-29T05:45:07;8.73;;;6.68;;
39502;SDS011;26970;49.900;10.774;2023-07-29T05:47:33;13.80;;;8.57;;
39502;SDS011;26970;49.900;10.774;2023-07-29T05:49:59;9.35;;;6.95;;
39502;SDS011;26970;49.900;10.774;2023-07-29T05:52:29;8.88;;;6.82;;
39502;SDS011;26970;49.900;10.774;2023-07-29T05:54:58;11.98;;;7.32;;
39502;SDS011;26970;49.900;10.774;2023-07-29T05:57:23;7.88;;;7.05;;
39502;SDS011;26970;49.900;10.774;2023-07-29T05:59:49;10.93;;;7.22;;
39502;SDS011;26970;49.900;10.774;2023-07-29T06:02:15;10.52;;;6.63;;
39502;SDS011;26970;49.900;10.774;2023-07-29T06:04:40;10.43;;;6.72;;
39502;SDS011;26970;49.900;10.774;2023-07-29T06:07:06;8.52;;;6.60;;
39502;SDS011;26970;49.900;10.774;2023-07-29T06:09:31;7.72;;;6.63;;
39502;SDS011;26970;49.900;10.774;2023-07-29T06:11:57;8.57;;;6.72;;
39502;SDS011;26970;49.900;10.774;2023-07-29T06:14:22;9.98;;;7.03;;
39502;SDS011;26970;49.900;10.774;2023-07-29T06:16:48;10.13;;;7.78;;
39502;SDS011;26970;49.900;10.774;2023-07-29T06:19:14;11.93;;;7.85;;
39502;SDS011;26970;49.900;10.774;2023-07-29T06:21:39;12.77;;;7.10;;
39502;SDS011;26970;49.900;10.774;2023-07-29T06:24:05;15.77;;;7.70;;
39502;SDS011;26970;49.900;10.774;2023-07-29T06:26:30;13.25;;;8.35;;
39502;SDS011;26970;49.900;10.774;2023-07-29T06:28:56;11.73;;;7.88;;
39502;SDS011;26970;49.900;10.774;2023-07-29T06:31:22;9.68;;;7.80;;
39502;SDS011;26970;49.900;10.774;2023-07-29T06:33:47;10.98;;;7.95;;
39502;SDS011;26970;49.900;10.774;2023-07-29T06:36:13;11.05;;;8.48;;
39502;SDS011;26970;49.900;10.774;2023-07-29T06:38:39;16.70;;;9.48;;
39502;SDS011;26970;49.900;10.774;2023-07-29T06:41:04;14.20;;;9.35;;
39502;SDS011;26970;49.900;10.774;2023-07-29T06:43:30;10.23;;;8.55;;
39502;SDS011;26970;49.900;10.774;2023-07-29T06:45:56;12.15;;;8.95;;
39502;SDS011;26970;49.900;10.774;2023-07-29T06:48:21;10.07;;;8.25;;
39502;SDS011;26970;49.900;10.774;2023-07-29T06:50:47;8.55;;;7.57;;
39502;SDS011;26970;49.900;10.774;2023-07-29T06:53:15;9.05;;;8.02;;
39502;SDS011;26970;49.900;10.774;2023-07-29T06:55:41;13.38;;;8.73;;
39502;SDS011;26970;49.900;10.774;2023-07-29T06:58:06;13.65;;;8.27;;
39502;SDS011;26970;49.900;10.774;2023-07-29T07:00:32;16.35;;;9.95;;
39502;SDS011;26970;49.900;10.774;2023-07-29T07:02:58;11.45;;;8.63;;
39502;SDS011;26970;49.900;10.774;2023-07-29T07:05:23;14.45;;;8.80;;
39502;SDS011;26970;49.900;10.774;2023-07-29T07:07:49;8.40;;;5.70;;
39502;SDS011;26970;49.900;10.774;2023-07-29T07:10:15;9.23;;;6.32;;
39502;SDS011;26970;49.900;10.774;2023-07-29T07:12:40;10.30;;;6.32;;
39502;SDS011;26970;49.900;10.774;2023-07-29T07:15:06;9.18;;;7.18;;
39502;SDS011;26970;49.900;10.774;2023-07-29T07:17:32;7.70;;;6.20;;
39502;SDS011;26970;49.900;10.774;2023-07-29T07:19:58;8.10;;;6.30;;
39502;SDS011;26970;49.900;10.774;2023-07-29T07:22:23;6.60;;;5.22;;
39502;SDS011;26970;49.900;10.774;2023-07-29T07:24:49;7.05;;;5.25;;
39502;SDS011;26970;49.900;10.774;2023-07-29T07:27:14;7.68;;;5.68;;
39502;SDS011;26970;49.900;10.774;2023-07-29T07:29:40;6.30;;;4.32;;
39502;SDS011;26970;49.900;10.774;2023-07-29T07:32:05;7.53;;;4.57;;
39502;SDS011;26970;49.900;10.774;2023-07-29T07:34:31;6.35;;;4.53;;
39502;SDS011;26970;49.900;10.774;2023-07-29T07:36:58;7.50;;;4.30;;
39502;SDS011;26970;49.900;10.774;2023-07-29T07:39:23;6.47;;;4.72;;
39502;SDS011;26970;49.900;10.774;2023-07-29T07:41:49;8.55;;;4.57;;
39502;SDS011;26970;49.900;10.774;2023-07-29T07:44:14;7.80;;;4.30;;
39502;SDS011;26970;49.900;10.774;2023-07-29T07:46:42;8.05;;;5.00;;
39502;SDS011;26970;49.900;10.774;2023-07-29T07:49:08;6.47;;;4.82;;
39502;SDS011;26970;49.900;10.774;2023-07-29T07:51:34;7.25;;;5.38;;
39502;SDS011;26970;49.900;10.774;2023-07-29T07:53:59;5.60;;;4.75;;
39502;SDS011;26970;49.900;10.774;2023-07-29T07:56:25;8.10;;;4.95;;
39502;SDS011;26970;49.900;10.774;2023-07-29T07:58:50;8.13;;;4.50;;
39502;SDS011;26970;49.900;10.774;2023-07-29T08:01:16;5.57;;;4.63;;
39502;SDS011;26970;49.900;10.774;2023-07-29T08:03:41;8.13;;;4.00;;
39502;SDS011;26970;49.900;10.774;2023-07-29T08:06:07;6.45;;;4.45;;
39502;SDS011;26970;49.900;10.774;2023-07-29T08:08:33;8.88;;;4.70;;
39502;SDS011;26970;49.900;10.774;2023-07-29T08:10:58;5.88;;;4.32;;
39502;SDS011;26970;49.900;10.774;2023-07-29T08:13:24;7.05;;;4.10;;
39502;SDS011;26970;49.900;10.774;2023-07-29T08:15:50;6.00;;;3.88;;
39502;SDS011;26970;49.900;10.774;2023-07-29T08:18:17;5.32;;;3.80;;
39502;SDS011;26970;49.900;10.774;2023-07-29T08:20:55;6.57;;;4.40;;
39502;SDS011;26970;49.900;10.774;2023-07-29T08:23:28;6.57;;;4.35;;
39502;SDS011;26970;49.900;10.774;2023-07-29T08:25:58;8.43;;;4.22;;
39502;SDS011;26970;49.900;10.774;2023-07-29T08:28:33;6.47;;;4.60;;
39502;SDS011;26970;49.900;10.774;2023-07-29T08:31:00;8.57;;;4.82;;
39502;SDS011;26970;49.900;10.774;2023-07-29T08:33:25;10.18;;;3.83;;
39502;SDS011;26970;49.900;10.774;2023-07-29T08:35:52;5.30;;;4.30;;
39502;SDS011;26970;49.900;10.774;2023-07-29T08:38:17;5.68;;;4.32;;
39502;SDS011;26970;49.900;10.774;2023-07-29T08:43:48;8.80;;;4.13;;
39502;SDS011;26970;49.900;10.774;2023-07-29T08:46:17;6.25;;;3.83;;
39502;SDS011;26970;49.900;10.774;2023-07-29T08:48:47;5.55;;;3.80;;
39502;SDS011;26970;49.900;10.774;2023-07-29T08:51:12;4.43;;;3.15;;
39502;SDS011;26970;49.900;10.774;2023-07-29T08:53:39;6.55;;;3.75;;
39502;SDS011;26970;49.900;10.774;2023-07-29T08:56:07;7.93;;;3.38;;
39502;SDS011;26970;49.900;10.774;2023-07-29T08:58:33;6.63;;;3.70;;
39502;SDS011;26970;49.900;10.774;2023-07-29T09:00:59;5.78;;;3.88;;
39502;SDS011;26970;49.900;10.774;2023-07-29T09:03:25;5.55;;;3.60;;
39502;SDS011;26970;49.900;10.774;2023-07-29T09:05:50;4.55;;;3.50;;
39502;SDS011;26970;49.900;10.774;2023-07-29T09:08:17;5.18;;;3.75;;
39502;SDS011;26970;49.900;10.774;2023-07-29T09:10:44;5.40;;;3.63;;
39502;SDS011;26970;49.900;10.774;2023-07-29T09:13:09;6.07;;;3.90;;
39502;SDS011;26970;49.900;10.774;2023-07-29T09:15:35;6.40;;;3.75;;
39502;SDS011;26970;49.900;10.774;2023-07-29T09:18:11;5.45;;;3.28;;
39502;SDS011;26970;49.900;10.774;2023-07-29T09:20:39;3.88;;;2.58;;
39502;SDS011;26970;49.900;10.774;2023-07-29T09:23:07;4.13;;;2.97;;
39502;SDS011;26970;49.900;10.774;2023-07-29T09:25:35;5.22;;;3.40;;
39502;SDS011;26970;49.900;10.774;2023-07-29T09:28:01;4.70;;;3.08;;
39502;SDS011;26970;49.900;10.774;2023-07-29T09:30:32;4.88;;;2.97;;
39502;SDS011;26970;49.900;10.774;2023-07-29T09:32:58;5.55;;;3.28;;
39502;SDS011;26970;49.900;10.774;2023-07-29T09:35:28;4.75;;;2.67;;
39502;SDS011;26970;49.900;10.774;2023-07-29T09:37:55;5.70;;;2.65;;
39502;SDS011;26970;49.900;10.774;2023-07-29T09:40:20;4.78;;;2.08;;
39502;SDS011;26970;49.900;10.774;2023-07-29T09:42:54;3.17;;;1.80;;
39502;SDS011;26970;49.900;10.774;2023-07-29T09:47:51;3.33;;;1.83;;
39502;SDS011;26970;49.900;10.774;2023-07-29T09:50:18;3.20;;;1.85;;
39502;SDS011;26970;49.900;10.774;2023-07-29T09:52:47;6.65;;;2.10;;
39502;SDS011;26970;49.900;10.774;2023-07-29T09:55:13;3.13;;;1.98;;
39502;SDS011;26970;49.900;10.774;2023-07-29T09:57:43;4.88;;;1.80;;
39502;SDS011;26970;49.900;10.774;2023-07-29T10:00:10;2.20;;;1.42;;
39502;SDS011;26970;49.900;10.774;2023-07-29T10:02:40;2.58;;;1.85;;
39502;SDS011;26970;49.900;10.774;2023-07-29T10:05:07;2.78;;;1.80;;
39502;SDS011;26970;49.900;10.774;2023-07-29T10:07:37;1.50;;;1.38;;
39502;SDS011;26970;49.900;10.774;2023-07-29T10:10:06;2.40;;;1.75;;
39502;SDS011;26970;49.900;10.774;2023-07-29T10:12:33;3.13;;;1.77;;
39502;SDS011;26970;49.900;10.774;2023-07-29T10:15:00;2.55;;;1.70;;
39502;SDS011;26970;49.900;10.774;2023-07-29T10:17:30;2.40;;;1.67;;
39502;SDS011;26970;49.900;10.774;2023-07-29T10:19:59;2.30;;;1.50;;
39502;SDS011;26970;49.900;10.774;2023-07-29T10:22:28;5.18;;;1.70;;
39502;SDS011;26970;49.900;10.774;2023-07-29T10:25:07;1.90;;;1.52;;
39502;SDS011;26970;49.900;10.774;2023-07-29T10:27:40;2.83;;;1.80;;
39502;SDS011;26970;49.900;10.774;2023-07-29T10:30:26;2.30;;;1.65;;
39502;SDS011;26970;49.900;10.774;2023-07-29T10:32:53;4.55;;;1.85;;
39502;SDS011;26970;49.900;10.774;2023-07-29T10:35:23;3.10;;;1.85;;
39502;SDS011;26970;49.900;10.774;2023-07-29T10:37:50;1.83;;;1.38;;
39502;SDS011;26970;49.900;10.774;2023-07-29T10:40:18;3.78;;;1.60;;
39502;SDS011;26970;49.900;10.774;2023-07-29T10:43:00;2.10;;;1.70;;
39502;SDS011;26970;49.900;10.774;2023-07-29T10:45:29;4.97;;;2.00;;
39502;SDS011;26970;49.900;10.774;2023-07-29T10:48:12;1.98;;;1.67;;
39502;SDS011;26970;49.900;10.774;2023-07-29T10:54:03;7.82;;;1.85;;
39502;SDS011;26970;49.900;10.774;2023-07-29T10:56:35;2.13;;;1.50;;
39502;SDS011;26970;49.900;10.774;2023-07-29T11:01:37;2.30;;;1.60;;
39502;SDS011;26970;49.900;10.774;2023-07-29T11:12:35;3.72;;;1.73;;
39502;SDS011;26970;49.900;10.774;2023-07-29T11:20:21;2.15;;;1.50;;
39502;SDS011;26970;49.900;10.774;2023-07-29T11:22:48;4.30;;;1.60;;
39502;SDS011;26970;49.900;10.774;2023-07-29T11:25:14;2.58;;;1.60;;
39502;SDS011;26970;49.900;10.774;2023-07-29T11:27:41;3.47;;;1.80;;
39502;SDS011;26970;49.900;10.774;2023-07-29T11:30:08;2.53;;;1.50;;
39502;SDS011;26970;49.900;10.774;2023-07-29T11:32:36;2.75;;;1.65;;
39502;SDS011;26970;49.900;10.774;2023-07-29T11:35:03;1.83;;;1.40;;
39502;SDS011;26970;49.900;10.774;2023-07-29T11:37:29;2.00;;;1.50;;
39502;SDS011;26970;49.900;10.774;2023-07-29T11:39:54;5.60;;;1.70;;
39502;SDS011;26970;49.900;10.774;2023-07-29T11:42:20;3.55;;;1.58;;
39502;SDS011;26970;49.900;10.774;2023-07-29T11:44:46;3.88;;;1.58;;
39502;SDS011;26970;49.900;10.774;2023-07-29T11:47:12;2.20;;;1.70;;
39502;SDS011;26970;49.900;10.774;2023-07-29T11:49:38;1.85;;;1.50;;
39502;SDS011;26970;49.900;10.774;2023-07-29T11:52:06;3.88;;;1.80;;
39502;SDS011;26970;49.900;10.774;2023-07-29T11:54:36;2.45;;;1.65;;
39502;SDS011;26970;49.900;10.774;2023-07-29T11:57:11;2.05;;;1.38;;
39502;SDS011;26970;49.900;10.774;2023-07-29T11:59:39;2.90;;;2.28;;
39502;SDS011;26970;49.900;10.774;2023-07-29T12:02:09;2.33;;;1.65;;
39502;SDS011;26970;49.900;10.774;2023-07-29T12:04:37;3.75;;;2.10;;
39502;SDS011;26970;49.900;10.774;2023-07-29T12:07:04;3.80;;;1.90;;
39502;SDS011;26970;49.900;10.774;2023-07-29T12:09:30;4.82;;;1.90;;
39502;SDS011;26970;49.900;10.774;2023-07-29T12:11:56;2.75;;;1.80;;
39502;SDS011;26970;49.900;10.774;2023-07-29T12:14:21;2.80;;;1.83;;
39502;SDS011;26970;49.900;10.774;2023-07-29T12:16:50;3.38;;;1.77;;
39502;SDS011;26970;49.900;10.774;2023-07-29T12:19:17;2.30;;;1.80;;
39502;SDS011;26970;49.900;10.774;2023-07-29T12:21:43;5.32;;;1.85;;
39502;SDS011;26970;49.900;10.774;2023-07-29T12:24:09;2.55;;;1.80;;
39502;SDS011;26970;49.900;10.774;2023-07-29T12:26:37;2.85;;;1.77;;
39502;SDS011;26970;49.900;10.774;2023-07-29T12:29:15;4.75;;;2.08;;
39502;SDS011;26970;49.900;10.774;2023-07-29T12:31:46;2.88;;;1.80;;
39502;SDS011;26970;49.900;10.774;2023-07-29T12:34:18;2.97;;;1.98;;
39502;SDS011;26970;49.900;10.774;2023-07-29T12:36:46;2.42;;;1.75;;
39502;SDS011;26970;49.900;10.774;2023-07-29T12:39:16;3.78;;;1.90;;
39502;SDS011;26970;49.900;10.774;2023-07-29T12:41:43;2.65;;;1.98;;
39502;SDS011;26970;49.900;10.774;2023-07-29T12:44:09;3.33;;;2.25;;
39502;SDS011;26970;49.900;10.774;2023-07-29T12:46:34;2.95;;;2.10;;
39502;SDS011;26970;49.900;10.774;2023-07-29T12:49:00;5.38;;;2.53;;
39502;SDS011;26970;49.900;10.774;2023-07-29T12:51:25;3.38;;;2.25;;
39502;SDS011;26970;49.900;10.774;2023-07-29T12:53:51;3.08;;;2.08;;
39502;SDS011;26970;49.900;10.774;2023-07-29T12:56:17;2.47;;;1.80;;
39502;SDS011;26970;49.900;10.774;2023-07-29T12:58:42;4.97;;;1.90;;
39502;SDS011;26970;49.900;10.774;2023-07-29T13:01:08;4.78;;;1.98;;
39502;SDS011;26970;49.900;10.774;2023-07-29T13:03:34;2.45;;;1.70;;
39502;SDS011;26970;49.900;10.774;2023-07-29T13:05:59;2.97;;;1.85;;
39502;SDS011;26970;49.900;10.774;2023-07-29T13:08:25;2.28;;;1.60;;
39502;SDS011;26970;49.900;10.774;2023-07-29T13:10:50;3.05;;;2.03;;
39502;SDS011;26970;49.900;10.774;2023-07-29T13:13:16;3.67;;;1.77;;
39502;SDS011;26970;49.900;10.774;2023-07-29T13:15:41;3.28;;;1.75;;
39502;SDS011;26970;49.900;10.774;2023-07-29T13:18:07;3.10;;;1.70;;
39502;SDS011;26970;49.900;10.774;2023-07-29T13:20:32;2.70;;;1.75;;
39502;SDS011;26970;49.900;10.774;2023-07-29T13:22:59;3.55;;;2.05;;
39502;SDS011;26970;49.900;10.774;2023-07-29T13:25:25;2.90;;;1.77;;
39502;SDS011;26970;49.900;10.774;2023-07-29T13:27:50;3.30;;;1.92;;
39502;SDS011;26970;49.900;10.774;2023-07-29T13:30:16;4.25;;;2.28;;
39502;SDS011;26970;49.900;10.774;2023-07-29T13:32:41;3.40;;;1.80;;
39502;SDS011;26970;49.900;10.774;2023-07-29T13:35:07;3.95;;;1.80;;
39502;SDS011;26970;49.900;10.774;2023-07-29T13:37:33;3.90;;;2.30;;
39502;SDS011;26970;49.900;10.774;2023-07-29T13:39:58;3.40;;;2.20;;
39502;SDS011;26970;49.900;10.774;2023-07-29T13:42:24;3.00;;;2.00;;
39502;SDS011;26970;49.900;10.774;2023-07-29T13:44:49;3.33;;;1.90;;
39502;SDS011;26970;49.900;10.774;2023-07-29T13:47:15;4.97;;;2.20;;
39502;SDS011;26970;49.900;10.774;2023-07-29T13:49:40;4.15;;;2.50;;
39502;SDS011;26970;49.900;10.774;2023-07-29T13:52:06;4.90;;;2.35;;
39502;SDS011;26970;49.900;10.774;2023-07-29T13:54:31;3.42;;;2.20;;
39502;SDS011;26970;49.900;10.774;2023-07-29T13:56:57;4.03;;;2.28;;
39502;SDS011;26970;49.900;10.774;2023-07-29T13:59:23;4.10;;;2.30;;
39502;SDS011;26970;49.900;10.774;2023-07-29T14:01:48;5.53;;;2.28;;
39502;SDS011;26970;49.900;10.774;2023-07-29T14:04:14;3.45;;;2.17;;
39502;SDS011;26970;49.900;10.774;2023-07-29T14:06:39;4.13;;;2.75;;
39502;SDS011;26970;49.900;10.774;2023-07-29T14:09:05;4.35;;;2.15;;
39502;SDS011;26970;49.900;10.774;2023-07-29T14:11:30;3.33;;;1.90;;
39502;SDS011;26970;49.900;10.774;2023-07-29T14:13:56;4.10;;;2.30;;
39502;SDS011;26970;49.900;10.774;2023-07-29T14:16:21;3.33;;;2.03;;
39502;SDS011;26970;49.900;10.774;2023-07-29T14:18:47;4.78;;;2.17;;
39502;SDS011;26970;49.900;10.774;2023-07-29T14:21:12;4.72;;;2.28;;
39502;SDS011;26970;49.900;10.774;2023-07-29T14:23:38;3.35;;;1.92;;
39502;SDS011;26970;49.900;10.774;2023-07-29T14:26:03;3.50;;;1.92;;
39502;SDS011;26970;49.900;10.774;2023-07-29T14:28:29;3.92;;;2.00;;
39502;SDS011;26970;49.900;10.774;2023-07-29T14:30:55;2.67;;;1.70;;
39502;SDS011;26970;49.900;10.774;2023-07-29T14:33:21;2.45;;;1.60;;
39502;SDS011;26970;49.900;10.774;2023-07-29T14:35:46;3.38;;;1.70;;
39502;SDS011;26970;49.900;10.774;2023-07-29T14:38:12;3.28;;;1.42;;
39502;SDS011;26970;49.900;10.774;2023-07-29T14:40:37;2.47;;;1.60;;
39502;SDS011;26970;49.900;10.774;2023-07-29T14:43:03;2.40;;;1.50;;
39502;SDS011;26970;49.900;10.774;2023-07-29T14:45:29;2.70;;;1.40;;
39502;SDS011;26970;49.900;10.774;2023-07-29T14:47:54;2.65;;;1.95;;
39502;SDS011;26970;49.900;10.774;2023-07-29T14:50:20;3.00;;;1.80;;
39502;SDS011;26970;49.900;10.774;2023-07-29T14:52:45;2.78;;;1.58;;
39502;SDS011;26970;49.900;10.774;2023-07-29T14:55:11;4.20;;;1.85;;
39502;SDS011;26970;49.900;10.774;2023-07-29T14:57:36;3.53;;;1.75;;